Ramat Gan, Israel
Current Conditions -  °F | °C
As of 9:50 AM on Friday 24 Oct 2014 (Local Time) from LLSD Reporting Station
Clear Clear  
Wind Chill: 77°   Ceiling: Unl
Heat Index: 79°   Visibility: 6mi
Dew Point: 57°   Wind: 0mph
Humidity: 50%   Direction: NA
Pressure: 30"   Gusts: NA
Location:  32.08°N, 34.8°E
Report Text: LLSD 240650Z 00000KT CAVOK 25/14 Q1016
Loading
Personal Weather Stations






























Interactive Weather Map
Tropical Storm Tracking
New forecast layout! Learn more

10-Day Weather Forecast

Advertisements
Track Severe Weather on mobile